Time;durP1;ratioP1;P1;durP2;ratioP2;P2;SDS_P1;SDS_P2;PMS_P1;PMS_P2;Temp;Humidity;BMP_temperature;BMP_pressure;BME280_temperature;BME280_humidity;BME280_pressure;Samples;Min_cycle;Max_cycle;Signal;HPM_P1;HPM_P2
2021/10/22 00:00:43;;;;;;;15.43;5.18;;;9.00;99.90;;;;;;2066300;28;20408;-72
2021/10/22 00:01:43;;;;;;;16.08;5.07;;;9.00;99.90;;;;;;2070821;28;20072;-72
2021/10/22 00:02:44;;;;;;;14.63;5.10;;;9.00;99.90;;;;;;2071359;28;20033;-72
2021/10/22 00:03:44;;;;;;;20.80;5.10;;;9.00;99.90;;;;;;2065838;28;20060;-72
2021/10/22 00:04:45;;;;;;;15.18;5.00;;;9.00;99.90;;;;;;2065874;28;20022;-72
2021/10/22 00:05:46;;;;;;;16.20;4.80;;;9.00;99.90;;;;;;2064046;28;20089;-72
2021/10/22 00:06:46;;;;;;;18.08;5.40;;;9.00;99.90;;;;;;2065185;28;21012;-72
2021/10/22 00:07:47;;;;;;;13.45;4.88;;;9.00;99.90;;;;;;2063450;28;20034;-72
2021/10/22 00:08:47;;;;;;;12.70;4.65;;;9.00;99.90;;;;;;2068690;28;20385;-72
2021/10/22 00:09:48;;;;;;;20.08;5.30;;;9.00;99.90;;;;;;2067872;28;20097;-72
2021/10/22 00:10:49;;;;;;;16.77;5.13;;;9.00;99.90;;;;;;2064321;28;20018;-72
2021/10/22 00:11:49;;;;;;;18.50;4.90;;;9.00;99.90;;;;;;2068632;28;20093;-72
2021/10/22 00:12:50;;;;;;;19.88;4.57;;;9.00;99.90;;;;;;2071285;28;20034;-73
2021/10/22 00:13:50;;;;;;;19.23;4.88;;;9.10;99.90;;;;;;2069228;28;20032;-72
2021/10/22 00:14:51;;;;;;;17.88;4.85;;;9.10;99.90;;;;;;2068024;28;20030;-72
2021/10/22 00:15:52;;;;;;;13.77;4.70;;;9.00;99.90;;;;;;2071582;28;20025;-72
2021/10/22 00:16:53;;;;;;;20.92;5.55;;;9.10;99.90;;;;;;2064326;28;20124;-72
2021/10/22 00:17:53;;;;;;;14.40;4.93;;;9.10;99.90;;;;;;2063199;28;20908;-72
2021/10/22 00:18:54;;;;;;;15.32;4.85;;;9.10;99.90;;;;;;2062825;28;20113;-72
2021/10/22 00:19:54;;;;;;;15.43;4.43;;;9.10;99.90;;;;;;2063594;28;20458;-72
2021/10/22 00:20:55;;;;;;;15.57;4.93;;;9.10;99.90;;;;;;2070851;28;20069;-73
2021/10/22 00:21:56;;;;;;;16.48;4.28;;;9.10;99.90;;;;;;2071147;28;20045;-73
2021/10/22 00:22:56;;;;;;;18.02;5.50;;;9.10;99.90;;;;;;2068672;28;20045;-72
2021/10/22 00:23:57;;;;;;;15.52;4.97;;;9.10;99.90;;;;;;2071055;28;20034;-72
2021/10/22 00:24:57;;;;;;;14.05;3.60;;;9.10;99.90;;;;;;2067189;28;20156;-72
2021/10/22 00:25:58;;;;;;;11.65;4.47;;;9.10;99.90;;;;;;2066640;28;20134;-72
2021/10/22 00:26:59;;;;;;;19.13;4.65;;;9.10;99.90;;;;;;2063414;28;20364;-72
2021/10/22 00:27:59;;;;;;;12.90;4.00;;;9.10;99.90;;;;;;2063182;28;20023;-72
2021/10/22 00:29:00;;;;;;;22.27;5.13;;;9.10;99.90;;;;;;2062683;28;20117;-72
2021/10/22 00:30:01;;;;;;;17.73;4.95;;;9.10;99.90;;;;;;2063146;28;20478;-72
2021/10/22 00:31:01;;;;;;;16.65;5.07;;;9.10;99.90;;;;;;2071202;28;20133;-72
2021/10/22 00:32:03;;;;;;;14.15;4.63;;;9.20;99.90;;;;;;2077561;28;20093;-73
2021/10/22 00:33:03;;;;;;;11.73;4.22;;;9.20;99.90;;;;;;2066671;28;20027;-72
2021/10/22 00:34:04;;;;;;;16.13;5.25;;;9.20;99.90;;;;;;2069344;28;20117;-72
2021/10/22 00:35:05;;;;;;;19.52;5.40;;;9.20;99.90;;;;;;2063901;28;20459;-72
2021/10/22 00:36:11;;;;;;;16.48;4.32;;;9.20;99.90;;;;;;2063506;28;20113;-72
2021/10/22 00:37:11;;;;;;;18.75;5.13;;;9.20;99.90;;;;;;2068252;28;20087;-72
2021/10/22 00:38:12;;;;;;;14.02;4.20;;;9.20;99.90;;;;;;2068058;28;20088;-72
2021/10/22 00:39:12;;;;;;;15.95;5.15;;;9.20;99.90;;;;;;2067521;28;20471;-72
2021/10/22 00:40:13;;;;;;;22.58;5.55;;;9.20;99.90;;;;;;2063683;28;20029;-72
2021/10/22 00:41:15;;;;;;;20.30;4.60;;;9.20;99.90;;;;;;2068740;28;20387;-73
2021/10/22 00:42:17;;;;;;;20.52;5.22;;;9.20;99.90;;;;;;2063269;28;20036;-72
2021/10/22 00:43:18;;;;;;;18.17;5.68;;;9.20;99.90;;;;;;2063553;28;20394;-72
2021/10/22 00:44:18;;;;;;;15.52;4.55;;;9.20;99.90;;;;;;2063233;28;20041;-72
2021/10/22 00:45:19;;;;;;;17.67;4.70;;;9.20;99.90;;;;;;2065471;28;20093;-72
2021/10/22 00:46:23;;;;;;;16.05;4.63;;;9.20;99.90;;;;;;2069642;28;20348;-72
2021/10/22 00:47:24;;;;;;;18.85;5.30;;;9.20;99.90;;;;;;2070841;28;20076;-72
2021/10/22 00:48:24;;;;;;;19.05;5.40;;;9.20;99.90;;;;;;2076078;28;20598;-72
2021/10/22 00:49:26;;;;;;;18.80;5.32;;;9.20;99.90;;;;;;2066553;28;20376;-72
2021/10/22 00:50:27;;;;;;;20.98;5.72;;;9.20;99.90;;;;;;2064479;28;20019;-72
2021/10/22 00:51:28;;;;;;;20.65;5.68;;;9.30;99.90;;;;;;2063947;28;20102;-72
2021/10/22 00:52:30;;;;;;;19.75;5.43;;;9.20;99.90;;;;;;2068149;28;20470;-72
2021/10/22 00:53:33;;;;;;;15.70;4.72;;;9.20;99.90;;;;;;2065814;28;20034;-72
2021/10/22 00:54:35;;;;;;;17.75;5.18;;;9.20;99.90;;;;;;2063767;28;20105;-73
2021/10/22 00:55:36;;;;;;;16.23;5.22;;;9.20;99.90;;;;;;2069641;28;20080;-72
2021/10/22 00:56:37;;;;;;;17.65;5.90;;;9.20;99.90;;;;;;2069117;28;20152;-72
2021/10/22 00:57:39;;;;;;;18.90;5.70;;;9.20;99.90;;;;;;2068558;28;20482;-72
2021/10/22 00:58:41;;;;;;;16.60;4.93;;;9.20;99.90;;;;;;2066212;28;20541;-72
2021/10/22 00:59:42;;;;;;;13.68;5.00;;;9.20;99.90;;;;;;2071802;28;20406;-72
2021/10/22 01:00:43;;;;;;;19.30;5.68;;;9.20;99.90;;;;;;2064092;28;20566;-72
2021/10/22 01:01:44;;;;;;;18.35;5.47;;;9.20;99.90;;;;;;2063781;28;20639;-73
2021/10/22 01:02:44;;;;;;;16.15;4.50;;;9.20;99.90;;;;;;2063584;28;20475;-72
2021/10/22 01:03:45;;;;;;;18.08;4.53;;;9.20;99.90;;;;;;2068771;28;20032;-72
2021/10/22 01:04:46;;;;;;;18.33;4.82;;;9.20;99.90;;;;;;2068672;28;20459;-72
2021/10/22 01:05:46;;;;;;;16.38;5.13;;;9.10;99.90;;;;;;2063824;28;20479;-72
2021/10/22 01:06:47;;;;;;;12.93;4.32;;;9.20;99.90;;;;;;2068310;28;20429;-72
2021/10/22 01:07:49;;;;;;;14.57;4.60;;;9.20;99.90;;;;;;2071553;28;20018;-72
2021/10/22 01:08:50;;;;;;;13.05;4.82;;;9.20;99.90;;;;;;2070974;28;20470;-72
2021/10/22 01:09:51;;;;;;;13.68;4.40;;;9.20;99.90;;;;;;2067549;28;20333;-72
2021/10/22 01:10:51;;;;;;;16.17;4.65;;;9.20;99.90;;;;;;2066989;28;20022;-73
2021/10/22 01:11:52;;;;;;;13.40;3.95;;;9.20;99.90;;;;;;2066474;28;20738;-72
2021/10/22 01:12:54;;;;;;;17.40;5.60;;;9.20;99.90;;;;;;2070043;28;20025;-72
2021/10/22 01:13:55;;;;;;;13.57;4.65;;;9.20;99.90;;;;;;2063654;28;20080;-72
2021/10/22 01:14:56;;;;;;;16.85;4.47;;;9.20;99.90;;;;;;2066851;28;20030;-72
2021/10/22 01:15:57;;;;;;;19.15;4.53;;;9.20;99.90;;;;;;2071413;28;20177;-72
2021/10/22 01:16:57;;;;;;;22.35;4.90;;;9.20;99.90;;;;;;2065030;28;20037;-72
2021/10/22 01:18:00;;;;;;;16.80;4.38;;;9.20;99.90;;;;;;2064469;28;20061;-72
2021/10/22 01:19:01;;;;;;;16.85;4.57;;;9.30;99.90;;;;;;2071120;28;20025;-72
2021/10/22 01:20:02;;;;;;;17.30;4.90;;;9.30;99.90;;;;;;2064588;28;20030;-72
2021/10/22 01:21:04;;;;;;;16.65;5.07;;;9.30;99.90;;;;;;2068980;28;20018;-73
2021/10/22 01:22:12;;;;;;;14.35;4.35;;;9.30;99.90;;;;;;2064235;28;20112;-72
2021/10/22 01:23:13;;;;;;;21.27;5.25;;;9.30;99.90;;;;;;2069499;28;20030;-72
2021/10/22 01:24:14;;;;;;;15.40;4.55;;;9.30;99.90;;;;;;2071912;28;20049;-72
2021/10/22 01:25:17;;;;;;;12.27;4.53;;;9.30;99.90;;;;;;2069445;28;20509;-72
2021/10/22 01:26:19;;;;;;;16.63;4.70;;;9.30;99.90;;;;;;2066885;28;20501;-72
2021/10/22 01:27:20;;;;;;;14.52;4.40;;;9.30;99.90;;;;;;2070200;28;20018;-72
2021/10/22 01:28:21;;;;;;;18.73;4.53;;;9.30;99.90;;;;;;2062731;28;20022;-72
2021/10/22 01:29:22;;;;;;;10.70;4.10;;;9.30;99.90;;;;;;2063584;28;20062;-72
2021/10/22 01:30:24;;;;;;;13.32;4.00;;;9.30;99.90;;;;;;2070490;28;20030;-72
2021/10/22 01:31:28;;;;;;;14.30;4.53;;;9.40;99.90;;;;;;2065715;28;20474;-72
2021/10/22 01:32:30;;;;;;;20.00;4.63;;;9.40;99.90;;;;;;2067575;28;20481;-72
2021/10/22 01:33:32;;;;;;;16.23;5.00;;;9.40;99.90;;;;;;2071546;28;20021;-73
2021/10/22 01:34:32;;;;;;;17.77;4.28;;;9.40;99.90;;;;;;2075852;28;20025;-72
2021/10/22 01:35:34;;;;;;;15.77;4.70;;;9.40;99.90;;;;;;2072632;28;20038;-72
2021/10/22 01:36:34;;;;;;;15.20;4.25;;;9.40;99.90;;;;;;2063498;28;20034;-72
2021/10/22 01:37:36;;;;;;;15.00;4.35;;;9.40;99.90;;;;;;2066687;28;20114;-72
2021/10/22 01:38:37;;;;;;;14.43;5.18;;;9.40;99.90;;;;;;2069961;28;20040;-72
2021/10/22 01:39:37;;;;;;;14.60;4.28;;;9.40;99.90;;;;;;2063943;28;20034;-72
2021/10/22 01:40:38;;;;;;;18.27;4.60;;;9.40;99.90;;;;;;2069215;28;20056;-72
2021/10/22 01:41:38;;;;;;;17.08;4.70;;;9.40;99.90;;;;;;2071755;28;20109;-72
2021/10/22 01:42:39;;;;;;;12.38;4.30;;;9.40;99.90;;;;;;2065948;28;20034;-72
2021/10/22 01:43:41;;;;;;;13.20;3.53;;;9.40;99.90;;;;;;2064140;28;20041;-72
2021/10/22 01:44:42;;;;;;;12.35;4.30;;;9.30;99.90;;;;;;2070910;28;20132;-72
2021/10/22 01:45:43;;;;;;;13.85;4.60;;;9.40;99.90;;;;;;2062690;28;20027;-72
2021/10/22 01:46:44;;;;;;;17.20;4.28;;;9.30;99.90;;;;;;2070813;28;20022;-72
2021/10/22 01:47:44;;;;;;;11.93;3.97;;;9.40;99.90;;;;;;2070815;28;20032;-72
2021/10/22 01:48:47;;;;;;;12.75;4.03;;;9.30;99.90;;;;;;2065243;28;20034;-72
2021/10/22 01:49:47;;;;;;;11.50;4.25;;;9.40;99.90;;;;;;2066131;28;20470;-72
2021/10/22 01:50:48;;;;;;;14.32;3.92;;;9.30;99.90;;;;;;2064929;28;20026;-72
2021/10/22 01:51:49;;;;;;;14.93;3.75;;;9.40;99.90;;;;;;2063142;28;20026;-72
2021/10/22 01:52:50;;;;;;;12.52;3.83;;;9.30;99.90;;;;;;2070574;28;20030;-72
2021/10/22 01:53:50;;;;;;;10.73;3.75;;;9.30;99.90;;;;;;2070959;28;20537;-72
2021/10/22 01:54:51;;;;;;;11.68;4.05;;;9.30;99.90;;;;;;2067971;28;20056;-72
2021/10/22 01:55:52;;;;;;;13.57;4.65;;;9.30;99.90;;;;;;2068420;28;20030;-72
2021/10/22 01:56:54;;;;;;;10.70;3.42;;;9.30;99.90;;;;;;2067768;28;20048;-73
2021/10/22 01:57:55;;;;;;;20.13;4.78;;;9.30;99.90;;;;;;2066440;28;20491;-72
2021/10/22 01:58:55;;;;;;;8.98;3.85;;;9.30;99.90;;;;;;2066618;28;20037;-72
2021/10/22 01:59:56;;;;;;;10.82;3.30;;;9.30;99.90;;;;;;2063788;28;20068;-72
2021/10/22 02:00:56;;;;;;;11.50;3.60;;;9.30;99.90;;;;;;2064350;28;20118;-72
2021/10/22 02:01:57;;;;;;;15.68;4.07;;;9.30;99.90;;;;;;2063045;28;20375;-72
2021/10/22 02:02:57;;;;;;;12.50;3.50;;;9.30;99.90;;;;;;2062360;28;20030;-72
2021/10/22 02:03:58;;;;;;;11.98;3.90;;;9.30;99.90;;;;;;2071002;28;20068;-72
2021/10/22 02:04:59;;;;;;;12.27;3.47;;;9.30;99.90;;;;;;2071161;28;20104;-72
2021/10/22 02:06:00;;;;;;;16.02;3.90;;;9.30;99.90;;;;;;2071042;28;20169;-72
2021/10/22 02:07:01;;;;;;;15.95;4.00;;;9.30;99.90;;;;;;2064749;28;20024;-72
2021/10/22 02:08:02;;;;;;;11.43;3.17;;;9.20;99.90;;;;;;2055522;28;20030;-72
2021/10/22 02:09:03;;;;;;;13.05;3.60;;;9.20;99.90;;;;;;2070119;28;20121;-72
2021/10/22 02:10:04;;;;;;;12.30;3.10;;;9.30;99.90;;;;;;2069929;28;20098;-73
2021/10/22 02:11:05;;;;;;;11.85;3.40;;;9.20;99.90;;;;;;2068876;28;20032;-72
2021/10/22 02:12:06;;;;;;;12.48;3.00;;;9.20;99.90;;;;;;2062485;28;20038;-72
2021/10/22 02:13:06;;;;;;;11.82;3.58;;;9.20;99.90;;;;;;2065610;28;20049;-72
2021/10/22 02:14:07;;;;;;;12.32;3.83;;;9.20;99.90;;;;;;2070729;28;20101;-72
2021/10/22 02:15:08;;;;;;;16.33;3.65;;;9.20;99.90;;;;;;2065401;28;20034;-72
2021/10/22 02:16:09;;;;;;;22.50;4.22;;;9.20;99.90;;;;;;2063657;28;20398;-72
2021/10/22 02:17:09;;;;;;;13.73;3.83;;;9.20;99.90;;;;;;2063486;28;20026;-72
2021/10/22 02:18:10;;;;;;;14.80;3.60;;;9.20;99.90;;;;;;2072748;28;20030;-72
2021/10/22 02:19:11;;;;;;;9.95;3.10;;;9.20;99.90;;;;;;2078804;28;20034;-72
2021/10/22 02:20:12;;;;;;;13.23;3.33;;;9.20;99.90;;;;;;2067544;28;20374;-72
2021/10/22 02:21:12;;;;;;;13.80;3.90;;;9.20;99.90;;;;;;2069566;28;20068;-72
2021/10/22 02:22:14;;;;;;;15.80;4.35;;;9.20;99.90;;;;;;2068489;28;20034;-72
2021/10/22 02:23:14;;;;;;;16.02;4.05;;;9.20;99.90;;;;;;2067275;28;20077;-72
2021/10/22 02:24:15;;;;;;;14.32;4.03;;;9.20;99.90;;;;;;2069291;28;20529;-72
2021/10/22 02:25:16;;;;;;;15.15;3.53;;;9.20;99.90;;;;;;2070564;28;20058;-72
2021/10/22 02:26:16;;;;;;;10.50;3.78;;;9.20;99.90;;;;;;2070895;28;20029;-72
2021/10/22 02:27:17;;;;;;;12.85;3.75;;;9.20;99.90;;;;;;2067540;28;20030;-72
2021/10/22 02:28:17;;;;;;;13.70;3.85;;;9.10;99.90;;;;;;2062792;28;20149;-73
2021/10/22 02:29:18;;;;;;;11.57;4.03;;;9.20;99.90;;;;;;2063315;28;20527;-72
2021/10/22 02:30:20;;;;;;;15.68;4.07;;;9.20;99.90;;;;;;2067426;28;20429;-73
2021/10/22 02:31:22;;;;;;;11.75;3.65;;;9.10;99.90;;;;;;2069695;28;20434;-72
2021/10/22 02:32:22;;;;;;;20.30;3.78;;;9.10;99.90;;;;;;2069980;28;20053;-72
2021/10/22 02:33:23;;;;;;;14.55;4.07;;;9.10;99.90;;;;;;2068121;28;20026;-72
2021/10/22 02:34:23;;;;;;;12.50;4.25;;;9.10;99.90;;;;;;2067444;28;20054;-72
2021/10/22 02:35:24;;;;;;;11.35;3.83;;;9.10;99.90;;;;;;2063619;28;20325;-72
2021/10/22 02:36:24;;;;;;;13.82;4.22;;;9.10;99.90;;;;;;2063510;28;20026;-72
2021/10/22 02:37:25;;;;;;;10.63;3.25;;;9.10;99.90;;;;;;2069967;28;20026;-72
2021/10/22 02:38:26;;;;;;;13.15;3.47;;;9.00;99.90;;;;;;2070289;28;20538;-72
2021/10/22 02:39:32;;;;;;;13.57;4.40;;;9.00;99.90;;;;;;2065705;28;20113;-72
2021/10/22 02:40:33;;;;;;;16.40;4.25;;;9.10;99.90;;;;;;2068835;28;20034;-72
2021/10/22 02:41:34;;;;;;;12.68;3.50;;;9.10;99.90;;;;;;2064214;28;20037;-72
2021/10/22 02:42:34;;;;;;;14.57;3.95;;;9.00;99.90;;;;;;2063832;28;20474;-72
2021/10/22 02:43:35;;;;;;;12.75;3.80;;;9.00;99.90;;;;;;2072129;28;20457;-72
2021/10/22 02:44:36;;;;;;;10.85;3.42;;;9.00;99.90;;;;;;2065009;28;20030;-72
2021/10/22 02:45:36;;;;;;;14.23;3.72;;;9.00;99.90;;;;;;2061187;28;20031;-73
2021/10/22 02:46:37;;;;;;;12.82;3.50;;;9.00;99.90;;;;;;2064153;28;20061;-72
2021/10/22 02:47:38;;;;;;;11.65;3.88;;;9.00;99.90;;;;;;2070465;28;20040;-72
2021/10/22 02:48:38;;;;;;;11.32;4.18;;;9.00;99.90;;;;;;2069883;28;20071;-72
2021/10/22 02:49:39;;;;;;;15.27;3.63;;;8.90;99.90;;;;;;2063828;28;20065;-72
2021/10/22 02:50:39;;;;;;;11.65;3.72;;;9.00;99.90;;;;;;2067799;28;20034;-72
2021/10/22 02:51:40;;;;;;;11.23;3.65;;;8.90;99.90;;;;;;2064636;28;20030;-72
2021/10/22 02:52:40;;;;;;;12.30;3.25;;;8.90;99.90;;;;;;2068233;28;20044;-72
2021/10/22 02:53:41;;;;;;;13.55;3.60;;;9.00;99.90;;;;;;2069724;28;20030;-72
2021/10/22 02:54:42;;;;;;;16.38;4.00;;;9.00;99.90;;;;;;2068116;28;20058;-73
2021/10/22 02:55:42;;;;;;;13.93;4.10;;;8.90;99.90;;;;;;2066746;28;20113;-72
2021/10/22 02:56:43;;;;;;;11.93;3.90;;;8.90;99.90;;;;;;2069270;28;20570;-72
2021/10/22 02:57:44;;;;;;;14.07;4.15;;;8.90;99.90;;;;;;2069855;28;20034;-73
2021/10/22 02:58:45;;;;;;;12.25;3.70;;;8.90;99.90;;;;;;2067664;28;20033;-72
2021/10/22 02:59:45;;;;;;;16.08;4.00;;;8.90;99.90;;;;;;2072818;28;20037;-72
2021/10/22 03:00:46;;;;;;;15.25;4.15;;;8.90;99.90;;;;;;2063985;28;20105;-72
2021/10/22 03:01:46;;;;;;;14.63;3.78;;;8.90;99.90;;;;;;2064125;28;20061;-72
2021/10/22 03:02:48;;;;;;;15.10;4.10;;;8.90;99.90;;;;;;2065030;28;20022;-72
2021/10/22 03:03:48;;;;;;;15.27;4.18;;;8.90;99.90;;;;;;2065020;28;20041;-72
2021/10/22 03:04:49;;;;;;;16.10;4.47;;;8.90;99.90;;;;;;2076601;28;20030;-72
2021/10/22 03:05:50;;;;;;;13.43;3.78;;;8.90;99.90;;;;;;2072045;28;20018;-72
2021/10/22 03:06:50;;;;;;;11.93;3.60;;;8.90;99.90;;;;;;2066400;28;20023;-73
2021/10/22 03:07:51;;;;;;;12.60;3.75;;;8.90;99.90;;;;;;2067325;28;20018;-73
2021/10/22 03:08:51;;;;;;;11.32;3.65;;;8.90;99.90;;;;;;2063561;28;20026;-72
2021/10/22 03:09:52;;;;;;;11.25;4.18;;;8.90;99.90;;;;;;2064253;28;20080;-72
2021/10/22 03:10:52;;;;;;;13.50;4.20;;;8.90;99.90;;;;;;2071858;28;20022;-72
2021/10/22 03:11:53;;;;;;;14.40;3.80;;;8.80;99.90;;;;;;2065287;28;20030;-72
2021/10/22 03:12:53;;;;;;;13.13;3.63;;;8.80;99.90;;;;;;2064481;28;20018;-73
2021/10/22 03:13:55;;;;;;;10.23;3.50;;;8.80;99.90;;;;;;2064686;28;20088;-72
2021/10/22 03:14:56;;;;;;;12.15;4.43;;;8.80;99.90;;;;;;2064639;28;20117;-72
2021/10/22 03:15:56;;;;;;;18.58;4.00;;;8.80;99.90;;;;;;2064670;28;20475;-72
2021/10/22 03:16:57;;;;;;;19.08;4.07;;;8.80;99.90;;;;;;2066625;28;20026;-73
2021/10/22 03:17:58;;;;;;;17.42;5.00;;;8.80;99.90;;;;;;2071435;28;20440;-72
2021/10/22 03:18:58;;;;;;;11.45;4.20;;;8.80;99.90;;;;;;2071510;28;20033;-72
2021/10/22 03:19:59;;;;;;;12.55;3.78;;;8.70;99.90;;;;;;2071823;28;20040;-72
2021/10/22 03:20:59;;;;;;;16.90;4.47;;;8.80;99.90;;;;;;2071191;28;20026;-72
2021/10/22 03:22:00;;;;;;;17.92;4.40;;;8.80;99.90;;;;;;2064691;28;20069;-72
2021/10/22 03:23:02;;;;;;;16.95;4.03;;;8.80;99.90;;;;;;2066057;28;20026;-72
2021/10/22 03:24:03;;;;;;;14.80;4.22;;;8.80;99.90;;;;;;2072707;28;20414;-72
2021/10/22 03:25:05;;;;;;;13.20;3.88;;;8.70;99.90;;;;;;2064028;28;20038;-72
2021/10/22 03:26:06;;;;;;;17.33;4.75;;;8.80;99.90;;;;;;2058962;28;20034;-72
2021/10/22 03:27:11;;;;;;;12.38;4.22;;;8.70;99.90;;;;;;2063406;28;20026;-72
2021/10/22 03:28:11;;;;;;;13.40;3.95;;;8.70;99.90;;;;;;2064000;28;20026;-72
2021/10/22 03:29:12;;;;;;;15.68;4.25;;;8.80;99.90;;;;;;2064320;28;20018;-72
2021/10/22 03:30:12;;;;;;;14.48;4.60;;;8.70;99.90;;;;;;2066937;28;20041;-72
2021/10/22 03:31:13;;;;;;;16.20;4.72;;;8.70;99.90;;;;;;2069593;28;20105;-72
2021/10/22 03:32:13;;;;;;;15.25;4.60;;;8.70;99.90;;;;;;2072035;28;20072;-72
2021/10/22 03:33:14;;;;;;;15.85;4.32;;;8.70;99.90;;;;;;2070256;28;20444;-72
2021/10/22 03:34:16;;;;;;;14.35;4.50;;;8.70;99.90;;;;;;2069549;28;20018;-72
2021/10/22 03:35:16;;;;;;;13.52;3.75;;;8.70;99.90;;;;;;2069782;28;20038;-72
2021/10/22 03:36:17;;;;;;;19.67;5.07;;;8.70;99.90;;;;;;2065155;28;20042;-72
2021/10/22 03:37:17;;;;;;;13.90;4.35;;;8.70;99.90;;;;;;2068831;28;20052;-72
2021/10/22 03:38:18;;;;;;;12.30;4.53;;;8.70;99.90;;;;;;2070282;28;20045;-72
2021/10/22 03:39:18;;;;;;;16.55;4.97;;;8.70;99.90;;;;;;2067244;28;20022;-72
2021/10/22 03:40:19;;;;;;;11.73;4.68;;;8.70;99.90;;;;;;2068200;28;20111;-72
2021/10/22 03:41:20;;;;;;;14.48;4.60;;;8.70;99.90;;;;;;2071354;28;20386;-72
2021/10/22 03:42:21;;;;;;;15.18;4.32;;;8.70;99.90;;;;;;2069286;28;20097;-72
2021/10/22 03:43:22;;;;;;;11.20;3.75;;;8.70;99.90;;;;;;2071292;28;20022;-72
2021/10/22 03:44:22;;;;;;;18.88;5.38;;;8.70;99.90;;;;;;2065542;28;20050;-73
2021/10/22 03:45:25;;;;;;;14.77;3.83;;;8.70;99.90;;;;;;2064183;28;20029;-72
2021/10/22 03:46:26;;;;;;;11.38;3.50;;;8.70;99.90;;;;;;2064309;28;20034;-72
2021/10/22 03:47:27;;;;;;;17.80;4.68;;;8.70;99.90;;;;;;2064964;28;20565;-72
2021/10/22 03:48:28;;;;;;;16.17;4.95;;;8.70;99.90;;;;;;2071217;28;20543;-72
2021/10/22 03:49:28;;;;;;;13.00;4.18;;;8.70;99.90;;;;;;2064522;28;20437;-72
2021/10/22 03:50:29;;;;;;;10.32;4.65;;;8.70;99.90;;;;;;2065093;28;20034;-72
2021/10/22 03:51:29;;;;;;;14.05;4.13;;;8.70;99.90;;;;;;2071676;28;20018;-72
2021/10/22 03:52:30;;;;;;;13.95;4.35;;;8.70;99.90;;;;;;2071907;28;20577;-72
2021/10/22 03:53:30;;;;;;;11.63;3.80;;;8.70;99.90;;;;;;2068618;28;20084;-72
2021/10/22 03:54:31;;;;;;;12.27;4.50;;;8.70;99.90;;;;;;2070352;28;20037;-72
2021/10/22 03:55:32;;;;;;;13.07;4.22;;;8.70;99.90;;;;;;2063159;28;20575;-72
2021/10/22 03:56:33;;;;;;;20.13;4.68;;;8.70;99.90;;;;;;2064758;28;20022;-72
2021/10/22 03:57:33;;;;;;;13.68;3.95;;;8.70;99.90;;;;;;2068582;28;20030;-72
2021/10/22 03:58:34;;;;;;;13.45;4.65;;;8.70;99.90;;;;;;2070980;28;20032;-72
2021/10/22 03:59:34;;;;;;;13.75;4.38;;;8.70;99.90;;;;;;2071552;28;20481;-72
2021/10/22 04:00:35;;;;;;;15.00;4.45;;;8.60;99.90;;;;;;2071484;28;20077;-72
2021/10/22 04:01:36;;;;;;;11.88;4.22;;;8.70;99.90;;;;;;2069521;28;20026;-72
2021/10/22 04:02:36;;;;;;;16.60;4.68;;;8.70;99.90;;;;;;2064303;28;20467;-72
2021/10/22 04:03:37;;;;;;;11.68;3.90;;;8.70;99.90;;;;;;2065416;28;20593;-72
2021/10/22 04:04:38;;;;;;;10.70;4.15;;;8.70;99.90;;;;;;2064456;28;20098;-72
2021/10/22 04:05:39;;;;;;;13.52;3.92;;;8.70;99.90;;;;;;2064116;28;20026;-73
2021/10/22 04:06:39;;;;;;;12.32;3.78;;;8.70;99.90;;;;;;2065978;28;20050;-72
2021/10/22 04:07:40;;;;;;;15.85;4.28;;;8.70;99.90;;;;;;2064487;28;20101;-72
2021/10/22 04:08:41;;;;;;;13.52;4.55;;;8.70;99.90;;;;;;2063481;28;20030;-72
2021/10/22 04:09:42;;;;;;;18.50;4.30;;;8.70;99.90;;;;;;2064204;28;20022;-72
2021/10/22 04:10:43;;;;;;;18.83;4.38;;;8.70;99.90;;;;;;2067512;28;20022;-72
2021/10/22 04:11:43;;;;;;;14.93;4.75;;;8.70;99.90;;;;;;2066595;28;20100;-72
2021/10/22 04:12:44;;;;;;;14.25;4.30;;;8.70;99.90;;;;;;2063344;28;20022;-72
2021/10/22 04:13:45;;;;;;;16.20;4.53;;;8.60;99.90;;;;;;2068942;28;20037;-72
2021/10/22 04:14:46;;;;;;;14.70;4.28;;;8.60;99.90;;;;;;2063938;28;20091;-72
2021/10/22 04:15:48;;;;;;;14.30;4.45;;;8.70;99.90;;;;;;2064528;28;20057;-72
2021/10/22 04:16:48;;;;;;;16.02;4.70;;;8.60;99.90;;;;;;2064021;28;20018;-72
2021/10/22 04:17:50;;;;;;;14.85;4.15;;;8.60;99.90;;;;;;2064155;28;20474;-72
2021/10/22 04:18:50;;;;;;;12.80;4.00;;;8.60;99.90;;;;;;2071424;28;20045;-72
2021/10/22 04:19:51;;;;;;;14.32;4.30;;;8.60;99.90;;;;;;2066201;28;20494;-72
2021/10/22 04:20:51;;;;;;;15.05;4.72;;;8.60;99.90;;;;;;2055635;28;20282;-72
2021/10/22 04:21:52;;;;;;;13.30;3.53;;;8.60;99.90;;;;;;2063696;28;20562;-72
2021/10/22 04:22:53;;;;;;;11.45;4.22;;;8.60;99.90;;;;;;2066898;28;20461;-72
2021/10/22 04:23:53;;;;;;;12.13;4.22;;;8.60;99.90;;;;;;2072172;28;20034;-72
2021/10/22 04:24:54;;;;;;;13.10;4.75;;;8.60;99.90;;;;;;2065092;28;20058;-72
2021/10/22 04:25:54;;;;;;;10.93;4.20;;;8.60;99.90;;;;;;2063875;28;20052;-72
2021/10/22 04:26:55;;;;;;;15.38;4.50;;;8.60;99.90;;;;;;2070163;28;20029;-72
2021/10/22 04:27:56;;;;;;;16.13;4.22;;;8.60;99.90;;;;;;2066644;28;20066;-72
2021/10/22 04:28:57;;;;;;;15.70;4.35;;;8.60;99.90;;;;;;2071369;28;20060;-72
2021/10/22 04:29:57;;;;;;;14.23;4.40;;;8.50;99.90;;;;;;2064142;28;20030;-72
2021/10/22 04:30:58;;;;;;;9.98;4.00;;;8.50;99.90;;;;;;2064107;28;20030;-72
2021/10/22 04:31:59;;;;;;;14.70;4.20;;;8.50;99.90;;;;;;2072245;28;20037;-71
2021/10/22 04:32:59;;;;;;;12.95;3.63;;;8.50;99.90;;;;;;2066593;28;20026;-72
2021/10/22 04:34:00;;;;;;;14.15;4.10;;;8.50;99.90;;;;;;2070818;28;20030;-72
2021/10/22 04:35:01;;;;;;;16.60;4.03;;;8.50;99.90;;;;;;2063764;28;20033;-72
2021/10/22 04:36:01;;;;;;;19.58;4.30;;;8.50;99.90;;;;;;2065892;28;20037;-72
2021/10/22 04:37:50;;;;;;;17.27;4.15;;;8.50;99.90;;;;;;2072158;28;20470;-72
2021/10/22 04:40:43;;;;;;;11.85;3.55;;;8.50;99.90;;;;;;2068811;28;20471;-72
2021/10/22 04:41:44;;;;;;;16.05;3.72;;;8.50;99.90;;;;;;2072482;28;20402;-72
2021/10/22 04:42:48;;;;;;;12.63;4.43;;;8.50;99.90;;;;;;2071362;28;20040;-72
2021/10/22 04:43:51;;;;;;;11.60;3.33;;;8.50;99.90;;;;;;2063589;28;20034;-72
2021/10/22 04:44:52;;;;;;;14.40;3.83;;;8.50;99.90;;;;;;2067825;28;20026;-72
2021/10/22 04:45:53;;;;;;;11.80;3.67;;;8.50;99.90;;;;;;2066268;28;20037;-72
2021/10/22 04:46:53;;;;;;;14.25;4.30;;;8.50;99.90;;;;;;2063943;28;20030;-72
2021/10/22 04:47:54;;;;;;;14.18;4.10;;;8.50;99.90;;;;;;2064479;28;20058;-72
2021/10/22 04:48:55;;;;;;;12.48;4.10;;;8.50;99.90;;;;;;2067600;28;20026;-72
2021/10/22 04:49:55;;;;;;;13.95;4.18;;;8.50;99.90;;;;;;2071730;28;20042;-72
2021/10/22 04:50:56;;;;;;;14.38;3.67;;;8.50;99.90;;;;;;2064118;28;20041;-72
2021/10/22 04:51:57;;;;;;;12.18;4.18;;;8.50;99.90;;;;;;2064099;28;20076;-72
2021/10/22 04:52:58;;;;;;;14.55;4.10;;;8.50;99.90;;;;;;2064878;28;20128;-72
2021/10/22 04:53:58;;;;;;;12.63;4.30;;;8.50;99.90;;;;;;2066016;28;20097;-72
2021/10/22 04:54:59;;;;;;;14.80;3.92;;;8.50;99.90;;;;;;2068729;28;20018;-72
2021/10/22 04:56:00;;;;;;;9.82;3.75;;;8.50;99.90;;;;;;2069751;28;20036;-72
2021/10/22 04:57:00;;;;;;;13.13;3.97;;;8.50;99.90;;;;;;2070999;28;20033;-73
2021/10/22 04:58:01;;;;;;;15.10;3.67;;;8.50;99.90;;;;;;2072810;28;20030;-72
2021/10/22 04:59:01;;;;;;;15.55;3.70;;;8.50;99.90;;;;;;2066870;28;20029;-72
2021/10/22 05:00:04;;;;;;;12.50;3.38;;;8.50;99.90;;;;;;2069402;28;20378;-72
2021/10/22 05:01:05;;;;;;;9.43;3.35;;;8.40;99.90;;;;;;2063967;28;20121;-72
2021/10/22 05:02:05;;;;;;;18.20;3.85;;;8.50;99.90;;;;;;2069072;28;20030;-72
2021/10/22 05:03:06;;;;;;;14.85;3.92;;;8.50;99.90;;;;;;2068472;28;20038;-72
2021/10/22 05:04:06;;;;;;;13.55;3.47;;;8.50;99.90;;;;;;2071805;28;20034;-72
2021/10/22 05:05:08;;;;;;;11.88;3.83;;;8.40;99.90;;;;;;2067355;28;20041;-72
2021/10/22 05:06:08;;;;;;;10.15;3.47;;;8.50;99.90;;;;;;2064933;28;20030;-72
2021/10/22 05:07:09;;;;;;;15.30;4.18;;;8.50;99.90;;;;;;2063703;28;20026;-72
2021/10/22 05:08:10;;;;;;;11.63;3.50;;;8.50;99.90;;;;;;2065104;28;20054;-72
2021/10/22 05:09:10;;;;;;;15.40;3.85;;;8.40;99.90;;;;;;2070927;28;20037;-72
2021/10/22 05:10:11;;;;;;;13.75;3.60;;;8.50;99.90;;;;;;2070036;28;20018;-72
2021/10/22 05:11:12;;;;;;;11.45;3.33;;;8.50;99.90;;;;;;2071196;28;20097;-73
2021/10/22 05:12:12;;;;;;;13.35;4.15;;;8.50;99.90;;;;;;2068695;28;20026;-73
2021/10/22 05:13:13;;;;;;;10.00;3.25;;;8.50;99.90;;;;;;2065528;28;20430;-72
2021/10/22 05:14:14;;;;;;;15.63;4.40;;;8.50;99.90;;;;;;2072017;28;20022;-72
2021/10/22 05:15:14;;;;;;;16.90;3.92;;;8.50;99.90;;;;;;2063829;28;20019;-72
2021/10/22 05:16:15;;;;;;;16.85;4.22;;;8.50;99.90;;;;;;2063637;28;20050;-73
2021/10/22 05:17:16;;;;;;;9.55;3.22;;;8.50;99.90;;;;;;2071761;28;20034;-72
2021/10/22 05:18:17;;;;;;;12.68;3.63;;;8.50;99.90;;;;;;2067706;28;20113;-72
2021/10/22 05:19:17;;;;;;;13.68;3.63;;;8.50;99.90;;;;;;2070269;28;20374;-72
2021/10/22 05:20:18;;;;;;;17.52;3.70;;;8.50;99.90;;;;;;2066945;28;20021;-72